Nieuw-Lekkerland, Netherlands
Current Conditions -  °F | °C
As of 10:55 PM on Monday 20 Oct 2014 (Local Time) from EHRD Reporting Station
Broken Clouds Broken Clouds  
Wind Chill: 59°   Ceiling: 2200
Heat Index: 59°   Visibility: 6mi
Dew Point: 54°   Wind: 13mph
Humidity: 82%   Direction: 220°SW
Pressure: 29.88"   Gusts: NA
Location:  51.89°N, 4.69°E
Report Text: EHRD 202055Z AUTO 22011KT 190V250 9999 SCT017 BKN022 BKN02815/12 Q1012 NOSIG
Loading
Personal Weather Stations






























Interactive Weather Map
Tropical Storm Tracking
New forecast layout! Learn more

10-Day Weather Forecast

Advertisements
Track Severe Weather on mobile